createdAt,value
2023-05-08T00:01:21.207Z,7.82
2023-05-08T00:03:47.550Z,7.82
2023-05-08T00:06:13.971Z,7.72
2023-05-08T00:08:41.845Z,7.20
2023-05-08T00:11:08.073Z,7.80
2023-05-08T00:13:34.295Z,8.00
2023-05-08T00:16:00.529Z,7.18
2023-05-08T00:18:26.733Z,8.05
2023-05-08T00:20:53.071Z,6.82
2023-05-08T00:23:19.312Z,6.63
2023-05-08T00:25:45.965Z,6.25
2023-05-08T00:28:12.402Z,6.82
2023-05-08T00:30:38.734Z,6.40
2023-05-08T00:33:05.086Z,6.10
2023-05-08T00:35:31.362Z,6.90
2023-05-08T00:37:57.546Z,6.75
2023-05-08T00:40:23.860Z,5.80
2023-05-08T00:42:50.137Z,6.30
2023-05-08T00:45:16.335Z,6.57
2023-05-08T00:47:42.664Z,6.47
2023-05-08T00:50:09.933Z,5.80
2023-05-08T00:52:36.779Z,6.18
2023-05-08T00:55:04.681Z,6.80
2023-05-08T00:57:32.882Z,6.65
2023-05-08T00:59:59.877Z,6.55
2023-05-08T01:02:26.227Z,7.00
2023-05-08T01:04:53.565Z,5.63
2023-05-08T01:07:19.807Z,5.55
2023-05-08T01:09:46.001Z,5.50
2023-05-08T01:12:24.004Z,5.93
2023-05-08T01:14:50.157Z,5.35
2023-05-08T01:17:25.338Z,5.88
2023-05-08T01:20:20.735Z,5.40
2023-05-08T01:22:58.614Z,6.00
2023-05-08T01:25:37.249Z,5.60
2023-05-08T01:28:21.899Z,5.72
2023-05-08T01:30:54.031Z,6.07
2023-05-08T01:33:26.807Z,5.63
2023-05-08T01:35:56.252Z,5.53
2023-05-08T01:38:26.746Z,5.57
2023-05-08T01:40:54.354Z,5.10
2023-05-08T01:43:20.549Z,5.45
2023-05-08T01:45:48.216Z,5.78
2023-05-08T01:48:19.809Z,5.47
2023-05-08T01:53:22.977Z,5.20
2023-05-08T01:55:50.973Z,5.60
2023-05-08T01:58:17.768Z,5.65
2023-05-08T02:00:44.585Z,5.88
2023-05-08T02:03:12.000Z,6.32
2023-05-08T02:05:38.622Z,6.22
2023-05-08T02:08:05.609Z,6.05
2023-05-08T02:10:31.811Z,6.88
2023-05-08T02:12:59.709Z,6.10
2023-05-08T02:15:27.520Z,6.35
2023-05-08T02:17:54.250Z,6.00
2023-05-08T02:20:21.073Z,6.22
2023-05-08T02:22:49.111Z,6.53
2023-05-08T02:25:16.093Z,6.15
2023-05-08T02:27:45.301Z,6.13
2023-05-08T02:30:15.471Z,6.43
2023-05-08T02:32:45.557Z,5.70
2023-05-08T02:35:15.895Z,6.10
2023-05-08T02:37:47.811Z,6.18
2023-05-08T02:40:14.747Z,6.88
2023-05-08T02:42:41.329Z,5.85
2023-05-08T02:45:08.067Z,6.60
2023-05-08T02:47:39.344Z,7.30
2023-05-08T02:50:12.446Z,6.82
2023-05-08T02:52:44.251Z,6.18
2023-05-08T02:55:23.830Z,6.38
2023-05-08T02:57:56.063Z,7.07
2023-05-08T03:00:23.652Z,6.47
2023-05-08T03:02:52.773Z,6.75
2023-05-08T03:05:20.738Z,6.70
2023-05-08T03:07:52.686Z,7.13
2023-05-08T03:10:19.489Z,6.10
2023-05-08T03:12:48.460Z,5.95
2023-05-08T03:15:17.585Z,6.40
2023-05-08T03:17:45.695Z,6.25
2023-05-08T03:20:14.795Z,6.57
2023-05-08T03:22:42.235Z,7.20
2023-05-08T03:25:09.285Z,6.72
2023-05-08T03:27:35.813Z,6.88
2023-05-08T03:30:02.468Z,6.85
2023-05-08T03:32:29.856Z,7.30
2023-05-08T03:34:58.550Z,7.63
2023-05-08T03:37:26.331Z,7.32
2023-05-08T03:39:52.573Z,8.68
2023-05-08T03:42:21.774Z,8.32
2023-05-08T03:44:50.154Z,8.32
2023-05-08T03:47:17.287Z,8.43
2023-05-08T03:49:45.132Z,9.52
2023-05-08T03:52:12.084Z,9.18
2023-05-08T03:54:38.343Z,9.00
2023-05-08T03:57:04.736Z,9.30
2023-05-08T03:59:30.988Z,8.68
2023-05-08T04:02:04.074Z,10.02
2023-05-08T04:04:35.799Z,8.88
2023-05-08T04:07:11.830Z,8.90
2023-05-08T04:09:38.410Z,10.18
2023-05-08T04:12:13.548Z,11.13
2023-05-08T04:14:43.759Z,9.80
2023-05-08T04:17:11.707Z,9.77
2023-05-08T04:19:39.624Z,9.13
2023-05-08T04:22:06.746Z,10.02
2023-05-08T04:24:34.908Z,8.82
2023-05-08T04:27:02.493Z,9.55
2023-05-08T04:29:28.719Z,9.60
2023-05-08T04:31:55.702Z,8.57
2023-05-08T04:34:22.414Z,9.38
2023-05-08T04:36:48.639Z,9.85
2023-05-08T04:39:14.915Z,9.95
2023-05-08T04:41:41.191Z,10.20
2023-05-08T04:44:07.545Z,9.82
2023-05-08T04:46:33.878Z,9.18
2023-05-08T04:49:00.268Z,9.60
2023-05-08T04:51:26.490Z,9.60
2023-05-08T04:53:52.712Z,9.65
2023-05-08T04:56:19.226Z,10.45
2023-05-08T04:58:45.538Z,9.32
2023-05-08T05:01:11.789Z,10.13
2023-05-08T05:03:38.053Z,10.40
2023-05-08T05:06:04.490Z,10.32
2023-05-08T05:08:30.797Z,10.48
2023-05-08T05:10:57.000Z,10.55
2023-05-08T05:13:23.388Z,10.07
2023-05-08T05:15:51.353Z,11.02
2023-05-08T05:18:18.141Z,10.90
2023-05-08T05:20:44.380Z,10.75
2023-05-08T05:23:11.240Z,10.27
2023-05-08T05:25:37.463Z,10.98
2023-05-08T05:28:03.731Z,10.93
2023-05-08T05:30:30.014Z,10.75
2023-05-08T05:32:56.322Z,10.82
2023-05-08T05:35:25.393Z,11.77
2023-05-08T05:37:52.150Z,11.77
2023-05-08T05:40:18.437Z,11.50
2023-05-08T05:42:48.758Z,12.30
2023-05-08T05:45:15.220Z,11.80
2023-05-08T05:47:45.274Z,12.40
2023-05-08T05:50:11.832Z,12.00
2023-05-08T05:52:38.247Z,12.15
2023-05-08T05:55:04.668Z,11.35
2023-05-08T05:57:31.299Z,11.73
2023-05-08T05:59:59.527Z,11.18
2023-05-08T06:02:25.841Z,11.40
2023-05-08T06:04:52.269Z,11.70
2023-05-08T06:07:18.604Z,11.25
2023-05-08T06:09:45.187Z,11.05
2023-05-08T06:12:11.964Z,10.60
2023-05-08T06:14:38.159Z,10.48
2023-05-08T06:17:04.409Z,10.93
2023-05-08T06:19:30.866Z,10.82
2023-05-08T06:21:57.084Z,11.68
2023-05-08T06:24:23.280Z,11.02
2023-05-08T06:26:49.492Z,11.82
2023-05-08T06:29:15.688Z,10.75
2023-05-08T06:31:41.923Z,10.38
2023-05-08T06:34:09.054Z,11.05
2023-05-08T06:36:36.280Z,12.43
2023-05-08T06:39:08.422Z,11.55
2023-05-08T06:41:34.740Z,11.43
2023-05-08T06:44:00.963Z,11.18
2023-05-08T06:46:27.247Z,10.80
2023-05-08T06:48:53.439Z,12.50
2023-05-08T06:51:22.964Z,11.25
2023-05-08T06:53:49.204Z,11.40
2023-05-08T06:56:15.432Z,11.77
2023-05-08T06:58:41.636Z,11.40
2023-05-08T07:01:07.901Z,11.57
2023-05-08T07:03:34.524Z,10.88
2023-05-08T07:06:00.746Z,11.77
2023-05-08T07:08:27.073Z,11.32
2023-05-08T07:10:53.567Z,11.70
2023-05-08T07:13:21.946Z,11.88
2023-05-08T07:15:48.275Z,11.30
2023-05-08T07:18:14.550Z,11.73
2023-05-08T07:20:40.802Z,10.35
2023-05-08T07:23:07.355Z,10.02
2023-05-08T07:25:33.560Z,10.85
2023-05-08T07:28:01.303Z,10.15
2023-05-08T07:30:27.792Z,10.43
2023-05-08T07:32:54.053Z,9.95
2023-05-08T07:35:20.362Z,10.23
2023-05-08T07:37:46.583Z,9.27
2023-05-08T07:40:12.846Z,9.82
2023-05-08T07:42:42.355Z,10.15
2023-05-08T07:45:09.546Z,10.25
2023-05-08T07:47:35.939Z,10.48
2023-05-08T07:50:02.160Z,9.77
2023-05-08T07:52:28.393Z,10.13
2023-05-08T07:54:54.600Z,9.18
2023-05-08T07:57:20.786Z,10.00
2023-05-08T07:59:46.980Z,10.00
2023-05-08T08:02:13.244Z,9.68
2023-05-08T08:04:39.586Z,9.38
2023-05-08T08:07:05.920Z,9.23
2023-05-08T08:09:32.368Z,8.85
2023-05-08T08:11:58.585Z,8.57
2023-05-08T08:14:24.822Z,8.93
2023-05-08T08:16:51.310Z,9.07
2023-05-08T08:19:17.612Z,9.57
2023-05-08T08:21:43.917Z,8.43
2023-05-08T08:24:10.422Z,8.55
2023-05-08T08:26:36.900Z,8.40
2023-05-08T08:29:03.277Z,7.85
2023-05-08T08:31:29.607Z,8.90
2023-05-08T08:33:57.407Z,9.48
2023-05-08T08:36:23.696Z,8.77
2023-05-08T08:38:49.888Z,9.05
2023-05-08T08:41:16.118Z,9.18
2023-05-08T08:43:45.154Z,8.80
2023-05-08T08:46:15.647Z,8.63
2023-05-08T08:48:45.703Z,8.93
2023-05-08T08:51:22.010Z,9.18
2023-05-08T08:53:49.176Z,9.95
2023-05-08T08:56:15.582Z,9.60
2023-05-08T08:58:46.577Z,9.70
2023-05-08T09:01:17.818Z,10.13
2023-05-08T09:03:44.614Z,9.90
2023-05-08T09:06:12.345Z,10.63
2023-05-08T09:08:39.005Z,10.32
2023-05-08T09:11:05.201Z,10.57
2023-05-08T09:13:31.578Z,11.32
2023-05-08T09:15:58.334Z,10.40
2023-05-08T09:18:24.552Z,9.02
2023-05-08T09:20:51.194Z,11.00
2023-05-08T09:23:18.013Z,11.13
2023-05-08T09:25:45.213Z,10.77
2023-05-08T09:28:21.434Z,8.75
2023-05-08T09:30:52.224Z,10.43
2023-05-08T09:33:18.542Z,11.07
2023-05-08T09:35:44.756Z,10.68
2023-05-08T09:38:30.925Z,11.00
2023-05-08T09:41:05.672Z,10.77
2023-05-08T09:43:31.923Z,10.38
2023-05-08T09:45:58.134Z,10.18
2023-05-08T09:48:37.211Z,11.70
2023-05-08T09:51:07.068Z,9.75
2023-05-08T09:53:33.275Z,10.75
2023-05-08T09:55:59.489Z,10.43
2023-05-08T09:58:37.229Z,10.43
2023-05-08T10:01:04.103Z,10.52
2023-05-08T10:03:46.317Z,10.73
2023-05-08T10:06:13.570Z,11.80
2023-05-08T10:08:39.775Z,11.05
2023-05-08T10:11:19.074Z,11.75
2023-05-08T10:13:46.304Z,11.27
2023-05-08T10:16:16.725Z,11.68
2023-05-08T10:18:48.003Z,10.88
2023-05-08T10:21:15.044Z,11.70
2023-05-08T10:23:46.893Z,11.70
2023-05-08T10:26:14.512Z,12.68
2023-05-08T10:28:44.173Z,11.50
2023-05-08T10:31:13.170Z,12.38
2023-05-08T10:33:40.864Z,12.18
2023-05-08T10:36:07.481Z,10.70
2023-05-08T10:38:33.821Z,11.27
2023-05-08T10:41:01.123Z,10.80
2023-05-08T10:43:28.920Z,10.73
2023-05-08T10:45:56.511Z,11.60
2023-05-08T10:48:31.440Z,12.30
2023-05-08T10:51:14.019Z,11.60
2023-05-08T10:53:43.948Z,12.38
2023-05-08T10:56:10.225Z,11.45
2023-05-08T10:58:39.044Z,10.23
2023-05-08T11:01:08.268Z,10.73
2023-05-08T11:03:45.247Z,11.90
2023-05-08T11:06:12.044Z,11.45
2023-05-08T11:08:51.218Z,12.10
2023-05-08T11:11:23.368Z,10.65
2023-05-08T11:13:59.295Z,10.60
2023-05-08T11:16:44.509Z,11.55
2023-05-08T11:19:17.606Z,11.82
2023-05-08T11:22:02.732Z,11.63
2023-05-08T11:24:36.314Z,12.52
2023-05-08T11:27:02.590Z,11.85
2023-05-08T11:29:28.781Z,10.85
2023-05-08T11:31:55.266Z,11.30
2023-05-08T11:34:40.207Z,10.48
2023-05-08T11:37:08.862Z,10.82
2023-05-08T11:39:35.064Z,10.10
2023-05-08T11:42:20.267Z,11.48
2023-05-08T11:44:46.573Z,10.20
2023-05-08T11:47:15.942Z,10.65
2023-05-08T11:49:42.353Z,9.88
2023-05-08T11:52:08.641Z,10.15
2023-05-08T11:54:34.870Z,10.07
2023-05-08T11:57:01.592Z,9.77
2023-05-08T11:59:27.910Z,9.60
2023-05-08T12:02:06.789Z,9.70
2023-05-08T12:04:42.717Z,9.68
2023-05-08T12:07:09.013Z,9.63
2023-05-08T12:09:38.079Z,9.43
2023-05-08T12:12:04.362Z,8.52
2023-05-08T12:14:30.621Z,8.60
2023-05-08T12:16:56.935Z,9.00
2023-05-08T12:19:23.205Z,7.68
2023-05-08T12:21:49.509Z,7.28
2023-05-08T12:24:18.608Z,7.43
2023-05-08T12:26:46.173Z,7.00
2023-05-08T12:29:12.395Z,6.80
2023-05-08T12:31:38.690Z,7.32
2023-05-08T12:34:05.952Z,7.45
2023-05-08T12:36:35.687Z,7.03
2023-05-08T12:39:15.339Z,7.75
2023-05-08T12:41:42.312Z,7.82
2023-05-08T12:44:18.576Z,7.72
2023-05-08T12:46:52.078Z,8.48
2023-05-08T12:49:22.996Z,7.57
2023-05-08T12:51:50.643Z,8.85
2023-05-08T12:54:16.840Z,9.10
2023-05-08T12:56:44.632Z,7.95
2023-05-08T12:59:10.837Z,9.32
2023-05-08T13:01:37.281Z,9.50
2023-05-08T13:04:07.196Z,8.45
2023-05-08T13:06:33.571Z,8.10
2023-05-08T13:08:59.818Z,7.82
2023-05-08T13:11:33.079Z,7.78
2023-05-08T13:13:59.447Z,6.90
2023-05-08T13:16:26.049Z,7.22
2023-05-08T13:18:52.359Z,7.78
2023-05-08T13:21:18.556Z,9.73
2023-05-08T13:23:44.797Z,7.85
2023-05-08T13:26:11.108Z,8.48
2023-05-08T13:28:37.358Z,8.15
2023-05-08T13:31:03.539Z,8.75
2023-05-08T13:33:29.744Z,8.43
2023-05-08T13:35:56.122Z,7.82
2023-05-08T13:38:22.323Z,8.95
2023-05-08T13:40:48.506Z,9.35
2023-05-08T13:43:14.713Z,8.57
2023-05-08T13:45:40.996Z,8.50
2023-05-08T13:48:07.381Z,8.10
2023-05-08T13:50:33.663Z,9.25
2023-05-08T13:53:00.561Z,9.90
2023-05-08T13:55:26.840Z,9.85
2023-05-08T13:57:53.076Z,9.13
2023-05-08T14:00:19.529Z,9.07
2023-05-08T14:02:46.166Z,10.20
2023-05-08T14:05:12.818Z,9.73
2023-05-08T14:07:39.359Z,9.13
2023-05-08T14:10:06.097Z,9.65
2023-05-08T14:12:35.946Z,8.35
2023-05-08T14:15:03.221Z,9.82
2023-05-08T14:17:29.615Z,9.43
2023-05-08T14:19:56.015Z,10.18
2023-05-08T14:22:22.233Z,8.60
2023-05-08T14:24:48.504Z,8.82
2023-05-08T14:27:14.746Z,10.25
2023-05-08T14:29:41.456Z,9.02
2023-05-08T14:32:09.244Z,9.27
2023-05-08T14:34:35.490Z,9.43
2023-05-08T14:37:01.843Z,7.97
2023-05-08T14:39:28.149Z,7.88
2023-05-08T14:42:18.246Z,8.27
2023-05-08T14:44:40.616Z,8.13
2023-05-08T14:47:06.860Z,8.05
2023-05-08T14:52:19.375Z,7.95
2023-05-08T14:54:47.784Z,8.88
2023-05-08T14:57:14.203Z,8.38
2023-05-08T15:02:26.618Z,7.53
2023-05-08T15:04:52.838Z,8.40
2023-05-08T15:07:19.081Z,9.38
2023-05-08T15:09:45.489Z,9.23
2023-05-08T15:12:11.737Z,8.70
2023-05-08T15:14:38.001Z,8.48
2023-05-08T15:17:04.254Z,8.50
2023-05-08T15:19:30.476Z,8.20
2023-05-08T15:21:56.690Z,8.77
2023-05-08T15:24:22.888Z,9.07
2023-05-08T15:26:49.102Z,8.65
2023-05-08T15:29:15.551Z,9.38
2023-05-08T15:31:41.822Z,9.10
2023-05-08T15:34:08.029Z,8.95
2023-05-08T15:36:35.161Z,8.70
2023-05-08T15:39:01.360Z,8.65
2023-05-08T15:41:27.552Z,9.82
2023-05-08T15:43:53.820Z,9.43
2023-05-08T15:46:20.198Z,7.95
2023-05-08T15:48:46.472Z,8.30
2023-05-08T15:51:12.963Z,8.43
2023-05-08T15:53:39.231Z,8.23
2023-05-08T15:56:06.073Z,8.95
2023-05-08T15:58:32.380Z,9.15
2023-05-08T16:00:58.627Z,9.93
2023-05-08T16:03:25.005Z,9.80
2023-05-08T16:05:51.293Z,9.70
2023-05-08T16:08:17.589Z,8.80
2023-05-08T16:10:43.841Z,9.30
2023-05-08T16:13:10.169Z,9.43
2023-05-08T16:15:36.523Z,10.35
2023-05-08T16:18:03.612Z,8.90
2023-05-08T16:20:30.243Z,10.38
2023-05-08T16:22:56.925Z,9.85
2023-05-08T16:25:23.552Z,9.30
2023-05-08T16:27:50.220Z,9.25
2023-05-08T16:30:17.007Z,10.00
2023-05-08T16:32:45.595Z,11.07
2023-05-08T16:35:12.179Z,10.13
2023-05-08T16:37:38.705Z,10.55
2023-05-08T16:40:06.078Z,10.35
2023-05-08T16:42:32.299Z,10.27
2023-05-08T16:44:58.535Z,9.90
2023-05-08T16:47:24.847Z,10.32
2023-05-08T16:49:51.124Z,9.60
2023-05-08T16:52:17.337Z,9.25
2023-05-08T16:54:43.567Z,9.32
2023-05-08T16:57:09.819Z,9.48
2023-05-08T16:59:36.052Z,9.35
2023-05-08T17:02:02.365Z,9.52
2023-05-08T17:04:30.736Z,9.35
2023-05-08T17:06:57.373Z,9.20
2023-05-08T17:09:25.181Z,9.52
2023-05-08T17:11:51.416Z,8.73
2023-05-08T17:14:18.402Z,8.90
2023-05-08T17:16:44.716Z,8.57
2023-05-08T17:19:11.007Z,8.65
2023-05-08T17:21:37.231Z,8.32
2023-05-08T17:24:03.596Z,8.43
2023-05-08T17:26:31.559Z,8.70
2023-05-08T17:28:57.768Z,8.20
2023-05-08T17:31:24.012Z,8.55
2023-05-08T17:33:50.218Z,8.02
2023-05-08T17:36:16.489Z,9.13
2023-05-08T17:38:45.811Z,7.82
2023-05-08T17:41:12.373Z,8.68
2023-05-08T17:43:39.023Z,8.00
2023-05-08T17:46:06.815Z,7.63
2023-05-08T17:48:33.927Z,7.68
2023-05-08T17:51:02.422Z,7.45
2023-05-08T17:53:31.777Z,8.05
2023-05-08T17:55:58.406Z,7.63
2023-05-08T17:58:24.953Z,7.93
2023-05-08T18:00:51.440Z,7.70
2023-05-08T18:03:17.794Z,7.53
2023-05-08T18:05:44.303Z,7.90
2023-05-08T18:08:10.506Z,7.75
2023-05-08T18:10:36.805Z,8.40
2023-05-08T18:13:03.023Z,7.32
2023-05-08T18:15:29.290Z,7.47
2023-05-08T18:17:55.577Z,7.32
2023-05-08T18:20:21.979Z,7.60
2023-05-08T18:22:48.203Z,7.95
2023-05-08T18:25:14.478Z,7.57
2023-05-08T18:27:41.059Z,7.50
2023-05-08T18:30:07.779Z,7.97
2023-05-08T18:32:35.193Z,7.68
2023-05-08T18:35:01.508Z,8.93
2023-05-08T18:37:28.464Z,7.22
2023-05-08T18:39:54.756Z,7.50
2023-05-08T18:42:21.015Z,7.70
2023-05-08T18:44:47.279Z,8.18
2023-05-08T18:47:13.514Z,7.72
2023-05-08T18:49:39.903Z,8.23
2023-05-08T18:52:06.233Z,8.85
2023-05-08T18:54:32.443Z,8.23
2023-05-08T18:56:58.689Z,8.65
2023-05-08T18:59:24.913Z,8.98
2023-05-08T19:01:51.266Z,8.45
2023-05-08T19:04:17.482Z,8.43
2023-05-08T19:06:43.685Z,8.98
2023-05-08T19:09:10.012Z,8.70
2023-05-08T19:11:36.212Z,8.63
2023-05-08T19:14:02.430Z,8.15
2023-05-08T19:16:28.742Z,8.00
2023-05-08T19:18:55.659Z,7.93
2023-05-08T19:21:21.862Z,8.60
2023-05-08T19:23:48.074Z,8.13
2023-05-08T19:26:14.288Z,8.13
2023-05-08T19:28:40.504Z,8.77
2023-05-08T19:31:07.114Z,8.10
2023-05-08T19:33:33.309Z,8.25
2023-05-08T19:35:59.533Z,8.30
2023-05-08T19:38:25.817Z,8.65
2023-05-08T19:40:56.630Z,7.65
2023-05-08T19:43:24.453Z,7.90
2023-05-08T19:45:50.699Z,8.23
2023-05-08T19:48:19.391Z,7.75
2023-05-08T19:50:46.055Z,7.97
2023-05-08T19:53:12.295Z,8.07
2023-05-08T19:55:38.519Z,8.20
2023-05-08T19:58:04.719Z,7.32
2023-05-08T20:00:30.976Z,7.65
2023-05-08T20:02:57.273Z,8.38
2023-05-08T20:05:23.726Z,7.75
2023-05-08T20:07:50.028Z,8.40
2023-05-08T20:10:16.514Z,8.95
2023-05-08T20:12:42.893Z,8.63
2023-05-08T20:15:09.475Z,8.13
2023-05-08T20:17:35.848Z,8.55
2023-05-08T20:20:02.105Z,8.25
2023-05-08T20:22:28.448Z,7.97
2023-05-08T20:24:54.670Z,8.48
2023-05-08T20:27:20.952Z,7.95
2023-05-08T20:29:47.182Z,8.60
2023-05-08T20:32:14.995Z,7.95
2023-05-08T20:34:41.440Z,8.38
2023-05-08T20:37:07.696Z,8.57
2023-05-08T20:39:33.894Z,8.80
2023-05-08T20:42:00.171Z,8.60
2023-05-08T20:44:26.390Z,15.75
2023-05-08T20:46:52.635Z,8.82
2023-05-08T20:49:18.930Z,8.52
2023-05-08T20:51:45.235Z,9.07
2023-05-08T20:54:11.436Z,8.75
2023-05-08T20:56:37.700Z,8.48
2023-05-08T20:59:03.920Z,8.45
2023-05-08T21:01:30.242Z,8.18
2023-05-08T21:03:56.507Z,9.07
2023-05-08T21:06:22.807Z,8.43
2023-05-08T21:08:49.917Z,8.65
2023-05-08T21:11:16.356Z,8.45
2023-05-08T21:13:45.263Z,8.70
2023-05-08T21:16:11.715Z,8.57
2023-05-08T21:18:38.045Z,9.05
2023-05-08T21:21:04.260Z,10.05
2023-05-08T21:23:31.105Z,9.38
2023-05-08T21:25:57.313Z,9.73
2023-05-08T21:28:23.492Z,8.43
2023-05-08T21:30:49.701Z,9.95
2023-05-08T21:33:15.930Z,9.98
2023-05-08T21:35:44.970Z,10.23
2023-05-08T21:38:13.866Z,9.95
2023-05-08T21:40:40.251Z,10.05
2023-05-08T21:43:06.500Z,9.88
2023-05-08T21:45:32.937Z,9.80
2023-05-08T21:47:59.724Z,10.55
2023-05-08T21:50:28.225Z,9.20
2023-05-08T21:52:56.316Z,9.60
2023-05-08T21:55:23.139Z,9.63
2023-05-08T21:57:49.329Z,9.45
2023-05-08T22:00:16.464Z,9.98
2023-05-08T22:02:42.742Z,9.73
2023-05-08T22:05:09.069Z,9.80
2023-05-08T22:07:35.290Z,9.38
2023-05-08T22:10:01.505Z,9.32
2023-05-08T22:12:27.719Z,9.02
2023-05-08T22:14:53.964Z,10.10
2023-05-08T22:17:20.230Z,9.35
2023-05-08T22:19:46.460Z,9.57
2023-05-08T22:22:12.752Z,9.98
2023-05-08T22:24:38.936Z,9.93
2023-05-08T22:27:05.354Z,10.57
2023-05-08T22:29:31.738Z,9.77
2023-05-08T22:31:57.997Z,10.15
2023-05-08T22:34:24.258Z,10.05
2023-05-08T22:36:50.476Z,10.00
2023-05-08T22:39:16.676Z,10.15
2023-05-08T22:41:43.110Z,10.23
2023-05-08T22:44:09.538Z,9.90
2023-05-08T22:46:35.926Z,10.88
2023-05-08T22:49:02.615Z,9.40
2023-05-08T22:51:30.178Z,9.93
2023-05-08T22:53:56.778Z,10.07
2023-05-08T22:56:23.069Z,9.88
2023-05-08T22:58:49.259Z,10.55
2023-05-08T23:01:17.149Z,10.07
2023-05-08T23:03:43.373Z,10.32
2023-05-08T23:06:09.624Z,10.65
2023-05-08T23:08:35.814Z,10.45
2023-05-08T23:11:02.013Z,10.77
2023-05-08T23:13:28.294Z,10.93
2023-05-08T23:15:54.549Z,10.90
2023-05-08T23:18:20.752Z,10.45
2023-05-08T23:20:47.008Z,10.70
2023-05-08T23:23:13.247Z,10.77
2023-05-08T23:25:39.466Z,11.32
2023-05-08T23:28:05.660Z,11.30
2023-05-08T23:30:31.860Z,10.50
2023-05-08T23:32:58.110Z,11.45
2023-05-08T23:35:24.472Z,11.65
2023-05-08T23:37:51.697Z,11.75
2023-05-08T23:40:17.890Z,11.20
2023-05-08T23:42:44.104Z,12.57
2023-05-08T23:45:10.905Z,11.90
2023-05-08T23:47:37.186Z,11.48
2023-05-08T23:50:03.556Z,11.77
2023-05-08T23:52:29.867Z,12.48
2023-05-08T23:54:56.054Z,12.90
2023-05-08T23:57:23.038Z,11.80
2023-05-08T23:59:49.417Z,11.38
